Time;durP1;ratioP1;P1;durP2;ratioP2;P2;SDS_P1;SDS_P2;PMS_P1;PMS_P2;Temp;Humidity;BMP_temperature;BMP_pressure;BME280_temperature;BME280_humidity;BME280_pressure;Samples;Min_cycle;Max_cycle;Signal;HPM_P1;HPM_P2
2022/08/31 00:06:14;;;;;;;10.93;3.13;;;;;;;16.58;74.14;101982.28;5048495;28;20063;-85
2022/08/31 00:08:40;;;;;;;4.78;2.83;;;;;;;16.54;74.42;101978.19;5050374;28;20021;-85
2022/08/31 00:11:08;;;;;;;6.03;2.75;;;;;;;16.49;74.76;101977.72;5049722;28;20035;-85
2022/08/31 00:13:35;;;;;;;5.30;3.00;;;;;;;16.44;74.98;101975.44;5049034;28;20021;-85
2022/08/31 00:16:01;;;;;;;7.72;2.88;;;;;;;16.46;75.17;101977.97;5050734;28;20474;-84
2022/08/31 00:18:27;;;;;;;4.93;2.90;;;;;;;16.46;75.13;101967.34;5048642;28;20124;-84
2022/08/31 00:20:52;;;;;;;4.20;2.85;;;;;;;16.52;75.06;101977.47;5050009;28;20526;-86
2022/08/31 00:23:18;;;;;;;6.43;2.83;;;;;;;16.50;75.17;101974.09;5050773;28;20441;-84
2022/08/31 00:25:47;;;;;;;3.72;2.70;;;;;;;16.44;75.46;101966.63;5051141;28;20048;-86
2022/08/31 00:28:14;;;;;;;6.22;3.08;;;;;;;16.46;75.65;101975.31;5048289;28;20473;-86
2022/08/31 00:30:40;;;;;;;4.55;2.80;;;;;;;16.43;75.82;101971.09;5050985;28;20104;-80
2022/08/31 00:33:06;;;;;;;5.15;2.85;;;;;;;16.40;75.77;101968.66;5048685;28;20021;-80
2022/08/31 00:35:35;;;;;;;3.55;2.60;;;;;;;16.41;76.05;101990.75;5047390;28;20449;-85
2022/08/31 00:38:04;;;;;;;5.70;2.58;;;;;;;16.40;76.12;101984.59;5048648;28;20087;-85
2022/08/31 00:40:30;;;;;;;3.17;2.72;;;;;;;16.42;76.13;101980.06;5048130;28;20029;-80
2022/08/31 00:42:59;;;;;;;4.82;2.80;;;;;;;16.38;76.30;101981.22;5048353;28;20505;-84
2022/08/31 00:45:24;;;;;;;3.83;2.78;;;;;;;16.41;76.24;101978.34;5053147;28;20070;-84
2022/08/31 00:47:50;;;;;;;4.57;2.92;;;;;;;16.39;76.19;101976.75;5053909;28;20029;-85
2022/08/31 00:50:18;;;;;;;5.78;2.72;;;;;;;16.36;76.39;101975.19;5049419;28;20025;-84
2022/08/31 00:52:47;;;;;;;5.68;2.90;;;;;;;16.34;76.45;101984.25;5051515;28;20024;-84
2022/08/31 00:55:35;;;;;;;3.55;2.70;;;;;;;16.28;76.96;101967.84;5046985;28;20047;-84
2022/08/31 00:58:08;;;;;;;4.60;2.92;;;;;;;16.35;76.54;101973.50;5047154;28;20036;-84
2022/08/31 01:00:33;;;;;;;4.07;2.80;;;;;;;16.32;76.46;101971.09;5049084;28;20040;-84
2022/08/31 01:03:01;;;;;;;5.93;2.90;;;;;;;16.29;76.84;101972.19;5048296;28;20066;-84
2022/08/31 01:05:27;;;;;;;7.32;3.15;;;;;;;16.29;76.99;101971.34;5049053;28;20028;-84
2022/08/31 01:07:54;;;;;;;4.20;3.10;;;;;;;16.25;76.92;101976.06;5048053;28;20016;-85
2022/08/31 01:10:23;;;;;;;4.22;2.72;;;;;;;16.23;77.20;101978.00;5046798;28;20031;-86
2022/08/31 01:12:52;;;;;;;5.53;3.20;;;;;;;16.22;77.54;101976.31;5048893;28;20024;-86
2022/08/31 01:15:18;;;;;;;4.45;2.80;;;;;;;16.21;77.24;101974.63;5048732;28;20034;-84
2022/08/31 01:17:47;;;;;;;5.75;2.53;;;;;;;16.25;77.04;101973.41;5048224;28;20025;-84
2022/08/31 01:20:22;;;;;;;6.90;2.75;;;;;;;16.24;76.95;101971.72;5049489;28;20067;-84
2022/08/31 01:22:55;;;;;;;4.43;2.85;;;;;;;16.23;77.08;101974.50;5049237;28;20513;-81
2022/08/31 01:25:21;;;;;;;3.88;2.63;;;;;;;16.20;77.33;101967.63;5048525;28;20029;-80
2022/08/31 01:27:46;;;;;;;4.65;2.63;;;;;;;16.18;77.14;101958.94;5049121;28;20542;-80
2022/08/31 01:30:21;;;;;;;7.13;3.03;;;;;;;16.18;77.36;101966.06;5046990;28;20532;-80
2022/08/31 01:32:46;;;;;;;4.18;2.90;;;;;;;16.13;77.45;101974.41;5065547;28;20045;-79
2022/08/31 01:35:11;;;;;;;5.75;3.13;;;;;;;16.11;77.24;101963.06;5029218;28;20196;-79
2022/08/31 01:37:37;;;;;;;4.93;2.72;;;;;;;16.18;77.32;101971.38;5061262;28;20028;-80
2022/08/31 01:40:03;;;;;;;3.72;2.70;;;;;;;16.12;77.43;101966.56;5034015;28;20144;-79
2022/08/31 01:42:28;;;;;;;5.53;2.85;;;;;;;16.09;77.30;101965.00;5047073;28;20154;-80
2022/08/31 01:44:53;;;;;;;8.55;3.00;;;;;;;16.10;77.57;101966.69;5046743;28;20033;-79
2022/08/31 01:47:19;;;;;;;3.47;2.60;;;;;;;16.08;77.50;101973.06;5038518;28;20033;-79
2022/08/31 01:49:44;;;;;;;3.92;2.95;;;;;;;16.02;77.69;101969.09;5047204;28;20028;-79
2022/08/31 01:52:09;;;;;;;3.10;2.40;;;;;;;16.04;77.98;101967.16;5045191;28;20043;-79
2022/08/31 01:54:35;;;;;;;4.40;2.65;;;;;;;16.03;77.86;101976.09;5048370;28;20023;-84
2022/08/31 01:57:00;;;;;;;5.65;3.10;;;;;;;16.05;77.82;101975.97;5046571;28;20140;-85
2022/08/31 01:59:26;;;;;;;5.63;2.60;;;;;;;16.03;77.98;101977.91;5046389;28;20032;-79
2022/08/31 02:01:55;;;;;;;4.85;2.70;;;;;;;16.01;78.11;101983.34;5046855;28;20025;-80
2022/08/31 02:04:23;;;;;;;3.55;2.50;;;;;;;16.03;77.85;101986.72;5047808;28;20029;-80
2022/08/31 02:06:54;;;;;;;4.97;2.35;;;;;;;16.00;77.68;101981.63;5048847;28;20033;-85
2022/08/31 02:09:21;;;;;;;6.63;2.58;;;;;;;15.97;77.97;101985.38;5047583;28;20025;-85
2022/08/31 02:11:46;;;;;;;3.60;2.58;;;;;;;15.97;78.00;101987.19;5046880;28;20036;-85
2022/08/31 02:14:13;;;;;;;3.70;2.60;;;;;;;15.94;78.02;101982.09;5045678;28;20025;-84
2022/08/31 02:16:38;;;;;;;3.90;2.50;;;;;;;15.90;78.15;101981.50;5048228;28;20118;-85
2022/08/31 02:19:05;;;;;;;4.40;2.65;;;;;;;15.92;78.21;101978.72;5046610;28;20483;-85
2022/08/31 02:21:30;;;;;;;3.83;2.40;;;;;;;15.91;78.14;101982.34;5048513;28;20032;-84
2022/08/31 02:23:59;;;;;;;3.40;2.70;;;;;;;15.92;78.25;101987.53;5049214;28;20078;-84
2022/08/31 02:26:25;;;;;;;4.70;2.55;;;;;;;15.90;77.88;101981.50;5050126;28;20024;-85
2022/08/31 02:28:50;;;;;;;4.82;2.45;;;;;;;15.92;77.91;101986.69;5048246;28;20025;-85
2022/08/31 02:31:16;;;;;;;3.95;2.47;;;;;;;15.90;78.22;101989.47;5047792;28;20371;-85
2022/08/31 02:33:43;;;;;;;3.30;2.45;;;;;;;15.91;78.21;101991.16;5047677;28;20059;-85
2022/08/31 02:36:08;;;;;;;3.70;2.60;;;;;;;15.89;78.33;101985.13;5048521;28;20021;-84
2022/08/31 02:38:35;;;;;;;4.60;2.33;;;;;;;15.89;78.14;101984.28;5047981;28;20382;-86
2022/08/31 02:41:02;;;;;;;3.95;2.35;;;;;;;15.88;78.15;101986.09;5058701;28;20041;-85
2022/08/31 02:43:27;;;;;;;6.60;2.72;;;;;;;15.84;78.51;101983.81;5070971;28;20157;-84
2022/08/31 02:45:53;;;;;;;5.22;2.45;;;;;;;15.85;78.37;101990.78;5073540;28;20109;-85
2022/08/31 02:48:19;;;;;;;4.53;2.67;;;;;;;15.82;78.27;101986.56;5050173;28;20025;-83
2022/08/31 02:50:47;;;;;;;4.53;2.70;;;;;;;15.78;78.59;101981.63;5053247;28;20025;-84
2022/08/31 02:53:14;;;;;;;3.97;2.55;;;;;;;15.73;78.60;101984.63;5051571;28;20033;-84
2022/08/31 02:55:41;;;;;;;3.95;2.50;;;;;;;15.73;78.83;101986.44;5085589;28;20060;-84
2022/08/31 02:58:08;;;;;;;4.28;2.50;;;;;;;15.72;78.54;101984.75;5073437;28;20040;-83
2022/08/31 03:00:35;;;;;;;3.83;2.70;;;;;;;15.75;78.98;101977.41;5075893;28;20053;-83
2022/08/31 03:03:00;;;;;;;3.95;2.30;;;;;;;15.66;78.88;101978.97;5072265;28;20437;-84
2022/08/31 03:05:26;;;;;;;4.32;2.80;;;;;;;15.68;78.89;101981.50;5074510;28;20081;-84
2022/08/31 03:07:55;;;;;;;8.00;2.83;;;;;;;15.64;78.99;101983.56;5072343;28;20029;-85
2022/08/31 03:10:23;;;;;;;5.05;2.80;;;;;;;15.62;78.89;101988.13;5074548;28;20222;-84
2022/08/31 03:12:50;;;;;;;4.70;2.60;;;;;;;15.61;78.96;101981.13;5074103;28;20047;-84
2022/08/31 03:15:17;;;;;;;5.70;2.70;;;;;;;15.57;79.02;101987.56;5073294;28;20043;-84
2022/08/31 03:17:43;;;;;;;4.80;2.90;;;;;;;15.50;79.02;101978.41;5105026;28;20100;-83
2022/08/31 03:20:12;;;;;;;3.78;2.55;;;;;;;15.50;79.25;101978.41;5070670;28;20033;-83
2022/08/31 03:22:38;;;;;;;6.72;2.65;;;;;;;15.51;79.37;101981.91;5054365;28;20009;-84
2022/08/31 03:25:06;;;;;;;4.90;2.45;;;;;;;15.46;79.41;101982.25;5054092;28;20034;-83
2022/08/31 03:27:31;;;;;;;4.85;2.78;;;;;;;15.44;79.52;101984.19;5053933;28;20048;-84
2022/08/31 03:29:57;;;;;;;4.43;2.72;;;;;;;15.41;79.64;101984.41;5090437;28;20033;-83
2022/08/31 03:32:26;;;;;;;3.65;2.55;;;;;;;15.39;79.58;101986.34;5074119;28;20063;-83
2022/08/31 03:34:54;;;;;;;3.40;2.95;;;;;;;15.35;79.74;101991.03;5072119;28;20036;-82
2022/08/31 03:37:20;;;;;;;3.95;2.42;;;;;;;15.32;79.78;101985.13;5074391;28;20035;-84
2022/08/31 03:39:46;;;;;;;3.83;2.70;;;;;;;15.35;79.54;101990.19;5076469;28;20037;-83
2022/08/31 03:42:12;;;;;;;4.25;2.50;;;;;;;15.29;79.81;101993.31;5073562;28;20105;-84
2022/08/31 03:44:38;;;;;;;5.40;2.53;;;;;;;15.24;79.78;101992.81;5073311;28;20033;-83
2022/08/31 03:47:03;;;;;;;4.30;2.88;;;;;;;15.28;79.50;101994.28;5072759;28;20024;-83
2022/08/31 03:49:29;;;;;;;3.78;2.90;;;;;;;15.22;79.65;101994.75;5075866;28;20020;-84
2022/08/31 03:51:54;;;;;;;5.57;2.97;;;;;;;15.22;79.67;101992.09;5074663;28;20031;-85
2022/08/31 03:54:20;;;;;;;2.95;2.65;;;;;;;15.19;79.70;101995.78;5072069;28;20100;-84
2022/08/31 03:56:45;;;;;;;5.43;2.70;;;;;;;15.16;79.54;102001.31;5074400;28;20013;-84
2022/08/31 03:59:11;;;;;;;5.00;2.60;;;;;;;15.13;79.69;101992.75;5073630;28;20052;-84
2022/08/31 04:01:37;;;;;;;3.05;2.53;;;;;;;15.11;79.48;101998.19;5075513;28;20013;-83
2022/08/31 04:04:03;;;;;;;3.17;2.88;;;;;;;15.09;79.68;101991.31;5072791;28;20110;-85
2022/08/31 04:06:28;;;;;;;2.80;2.55;;;;;;;15.08;79.45;101989.63;5073576;28;20025;-84
2022/08/31 04:08:54;;;;;;;5.78;2.72;;;;;;;15.03;79.84;101989.97;5074223;28;20021;-84
2022/08/31 04:11:21;;;;;;;4.07;2.75;;;;;;;15.04;79.88;101984.53;5074210;28;20040;-84
2022/08/31 04:13:47;;;;;;;6.05;3.15;;;;;;;14.98;80.00;101992.94;5073785;28;20088;-84
2022/08/31 04:16:17;;;;;;;3.58;2.60;;;;;;;14.96;80.08;101992.22;5074424;28;20063;-83
2022/08/31 04:18:44;;;;;;;4.47;2.60;;;;;;;14.94;80.23;101994.16;5073857;28;20063;-83
2022/08/31 04:21:22;;;;;;;7.25;2.85;;;;;;;14.94;80.00;101991.50;5073498;28;20025;-84
2022/08/31 04:23:49;;;;;;;5.65;2.70;;;;;;;14.92;79.96;101996.06;5074578;28;20025;-84
2022/08/31 04:26:17;;;;;;;3.90;2.45;;;;;;;14.94;79.34;101994.16;5074486;28;20085;-85
2022/08/31 04:28:43;;;;;;;6.68;2.83;;;;;;;14.87;79.54;101995.56;5074579;28;20020;-85
2022/08/31 04:31:08;;;;;;;3.20;2.47;;;;;;;14.79;79.65;101997.91;5074200;28;20048;-84
2022/08/31 04:33:37;;;;;;;9.73;2.50;;;;;;;14.77;79.56;102002.47;5074349;28;20013;-84
2022/08/31 04:36:08;;;;;;;6.50;2.92;;;;;;;14.76;79.32;102003.44;5068092;28;20049;-84
2022/08/31 04:38:34;;;;;;;7.30;2.80;;;;;;;14.71;80.13;102001.13;5064924;28;20064;-84
2022/08/31 04:41:04;;;;;;;3.30;2.60;;;;;;;14.69;79.40;102000.38;5051496;28;20390;-84
2022/08/31 04:43:30;;;;;;;5.28;2.60;;;;;;;14.70;79.25;101998.56;5052964;28;20044;-85
2022/08/31 04:45:55;;;;;;;5.15;2.63;;;;;;;14.69;78.99;102002.19;5049849;28;20107;-85
2022/08/31 04:48:20;;;;;;;3.42;2.33;;;;;;;14.63;79.28;102005.28;5031573;28;20021;-85
2022/08/31 04:50:48;;;;;;;3.00;2.47;;;;;;;14.61;79.15;102004.56;5029702;28;20033;-85
2022/08/31 04:53:13;;;;;;;3.97;2.63;;;;;;;14.63;79.23;102003.47;5029198;28;20495;-86
2022/08/31 04:55:40;;;;;;;5.03;2.80;;;;;;;14.54;79.19;102011.25;5050105;28;20028;-86
2022/08/31 04:58:05;;;;;;;5.35;2.83;;;;;;;14.47;79.20;102017.94;5050676;28;20029;-84
2022/08/31 05:00:31;;;;;;;5.90;2.70;;;;;;;14.43;79.28;102014.69;5083290;28;20021;-84
2022/08/31 05:02:59;;;;;;;3.50;2.58;;;;;;;14.38;79.23;102020.25;5050847;28;20025;-85
2022/08/31 05:05:24;;;;;;;4.57;2.70;;;;;;;14.35;79.09;102012.53;5048801;28;20770;-85
2022/08/31 05:07:50;;;;;;;4.03;2.33;;;;;;;14.31;79.29;102012.84;5050625;28;20032;-84
2022/08/31 05:10:15;;;;;;;3.35;2.50;;;;;;;14.32;79.08;102014.53;5049120;28;20067;-85
2022/08/31 05:12:42;;;;;;;4.90;2.50;;;;;;;14.26;78.86;102013.19;5046573;28;20570;-85
2022/08/31 05:15:07;;;;;;;6.28;2.60;;;;;;;14.23;79.13;102017.84;5049082;28;20408;-85
2022/08/31 05:17:32;;;;;;;5.00;2.80;;;;;;;14.18;79.18;102023.47;5048665;28;20124;-85
2022/08/31 05:19:58;;;;;;;3.15;2.40;;;;;;;14.20;78.66;102026.00;5048900;28;20036;-86
2022/08/31 05:22:23;;;;;;;4.32;2.42;;;;;;;14.19;78.81;102024.31;5049349;28;20497;-85
2022/08/31 05:24:49;;;;;;;4.63;2.50;;;;;;;14.17;78.25;102026.22;5050284;28;20021;-83
2022/08/31 05:27:14;;;;;;;3.78;2.63;;;;;;;14.14;78.63;102022.00;5043992;28;20021;-86
2022/08/31 05:29:39;;;;;;;4.32;2.35;;;;;;;14.14;78.18;102027.28;5050255;28;20029;-85
2022/08/31 05:32:08;;;;;;;5.38;2.30;;;;;;;14.16;77.98;102035.97;5050192;28;20032;-85
2022/08/31 05:34:33;;;;;;;5.85;2.83;;;;;;;14.16;77.94;102035.97;5050549;28;20032;-86
2022/08/31 05:36:58;;;;;;;4.80;2.30;;;;;;;14.22;77.49;102026.75;5049717;28;20025;-85
2022/08/31 05:39:25;;;;;;;6.93;2.63;;;;;;;14.19;77.22;102035.75;5047144;28;20013;-85
2022/08/31 05:41:50;;;;;;;4.78;2.20;;;;;;;14.22;77.17;102035.53;5047947;28;20075;-84
2022/08/31 05:44:18;;;;;;;3.63;2.40;;;;;;;14.20;77.10;102029.50;5048213;28;20029;-85
2022/08/31 05:46:44;;;;;;;7.07;2.38;;;;;;;14.25;76.40;102035.31;5079575;28;20516;-86
2022/08/31 05:49:09;;;;;;;6.05;2.25;;;;;;;14.25;76.53;102039.75;5047639;28;20021;-85
2022/08/31 05:51:35;;;;;;;3.47;2.10;;;;;;;14.30;76.16;102038.47;5047536;28;20025;-86
2022/08/31 05:54:01;;;;;;;3.40;2.55;;;;;;;14.32;75.96;102033.06;5048246;28;20017;-86
2022/08/31 05:56:27;;;;;;;5.00;2.15;;;;;;;14.31;75.45;102026.94;5045732;28;20463;-84
2022/08/31 05:58:53;;;;;;;2.58;2.00;;;;;;;14.33;75.31;102027.66;5048574;28;20021;-84
2022/08/31 06:01:25;;;;;;;5.75;2.13;;;;;;;14.36;75.39;102032.75;5049673;28;20109;-85
2022/08/31 06:03:54;;;;;;;6.93;2.30;;;;;;;14.38;75.07;102044.06;5046834;28;20540;-86
2022/08/31 06:06:20;;;;;;;6.53;2.40;;;;;;;14.38;74.65;102049.38;5046073;28;20032;-85
2022/08/31 06:08:45;;;;;;;3.58;2.13;;;;;;;14.45;74.58;102046.34;5047959;28;20024;-85
2022/08/31 06:11:14;;;;;;;4.70;2.40;;;;;;;14.50;74.65;102054.81;5045915;28;20552;-85
2022/08/31 06:13:41;;;;;;;4.55;2.05;;;;;;;14.53;74.01;102050.13;5047039;28;20036;-86
2022/08/31 06:16:08;;;;;;;2.75;1.83;;;;;;;14.61;73.17;102052.22;5047879;28;20021;-85
2022/08/31 06:18:37;;;;;;;5.28;2.20;;;;;;;14.62;73.39;102043.31;5050518;28;20041;-84
2022/08/31 06:21:07;;;;;;;3.78;2.17;;;;;;;14.68;73.51;102048.19;5050328;28;20672;-85
2022/08/31 06:23:34;;;;;;;5.53;2.22;;;;;;;14.75;72.71;102046.78;5048499;28;20021;-84
2022/08/31 06:26:01;;;;;;;6.55;2.17;;;;;;;14.81;72.71;102048.13;5050789;28;20510;-85
2022/08/31 06:28:31;;;;;;;3.13;1.90;;;;;;;14.88;72.26;102050.25;5049874;28;21600;-84
2022/08/31 06:31:01;;;;;;;4.55;2.40;;;;;;;14.96;71.95;102058.47;5048411;28;20025;-84
2022/08/31 06:33:28;;;;;;;4.55;2.40;;;;;;;15.09;71.43;102062.88;5046899;28;20039;-85
2022/08/31 06:35:53;;;;;;;6.03;2.53;;;;;;;15.20;71.36;102063.75;5050067;28;20548;-83
2022/08/31 06:38:19;;;;;;;4.13;2.15;;;;;;;15.28;70.73;102071.19;5052125;28;20067;-85
2022/08/31 06:40:44;;;;;;;3.42;2.10;;;;;;;15.29;70.13;102065.75;5051502;28;20017;-86
2022/08/31 06:43:09;;;;;;;6.30;2.70;;;;;;;15.31;69.73;102065.66;5051716;28;20092;-85
2022/08/31 06:45:35;;;;;;;7.47;3.08;;;;;;;15.36;69.04;102066.16;5051104;28;20302;-84
2022/08/31 06:48:02;;;;;;;4.88;2.55;;;;;;;15.38;68.56;102074.81;5051037;28;20025;-84
2022/08/31 06:50:27;;;;;;;3.53;2.00;;;;;;;15.40;68.60;102070.25;5050664;28;20402;-85
2022/08/31 06:52:54;;;;;;;3.65;2.00;;;;;;;15.42;68.65;102068.34;5052632;28;20009;-85
2022/08/31 06:55:19;;;;;;;7.88;2.20;;;;;;;15.50;68.60;102067.75;5051669;28;20033;-85
2022/08/31 06:57:45;;;;;;;4.93;2.08;;;;;;;15.59;67.31;102078.53;5053283;28;20029;-80
2022/08/31 07:00:10;;;;;;;5.97;1.80;;;;;;;15.72;67.37;102072.31;5051033;28;20082;-85
2022/08/31 07:02:36;;;;;;;3.75;2.00;;;;;;;15.79;67.12;102074.41;5052028;28;20036;-84
2022/08/31 07:05:02;;;;;;;4.03;1.70;;;;;;;15.85;66.74;102073.06;5052972;28;20147;-84
2022/08/31 07:07:30;;;;;;;4.70;1.95;;;;;;;16.03;66.46;102076.16;5053359;28;20104;-86
2022/08/31 07:09:55;;;;;;;4.72;1.98;;;;;;;16.02;65.64;102077.94;5050969;28;20463;-85
2022/08/31 07:12:21;;;;;;;5.40;1.98;;;;;;;16.07;65.39;102080.25;5054709;28;20017;-84
2022/08/31 07:14:47;;;;;;;3.05;1.73;;;;;;;16.18;65.17;102083.75;5053343;28;20025;-84
2022/08/31 07:17:12;;;;;;;7.70;1.88;;;;;;;16.35;65.49;102076.25;5051520;28;20037;-84
2022/08/31 07:19:37;;;;;;;3.35;2.17;;;;;;;16.40;64.62;102079.41;5050733;28;20025;-84
2022/08/31 07:22:05;;;;;;;3.03;1.92;;;;;;;16.53;63.59;102075.66;5048246;28;20191;-82
2022/08/31 07:24:33;;;;;;;4.22;1.80;;;;;;;16.64;63.41;102076.63;5051872;28;20485;-84
2022/08/31 07:27:03;;;;;;;2.83;1.75;;;;;;;16.73;63.21;102081.22;5051584;28;20107;-85
2022/08/31 07:29:32;;;;;;;6.32;1.90;;;;;;;16.90;62.58;102078.91;5052195;28;20025;-84
2022/08/31 07:31:59;;;;;;;4.32;2.30;;;;;;;16.99;62.16;102073.81;5051230;28;20021;-84
2022/08/31 07:34:30;;;;;;;5.75;1.90;;;;;;;17.09;61.79;102070.28;5050379;28;20027;-77
2022/08/31 07:42:30;;;;;;;5.10;1.92;;;;;;;17.29;60.65;102068.66;5060903;28;20067;-82
2022/08/31 07:44:58;;;;;;;4.53;2.00;;;;;;;17.43;60.80;102068.34;5050935;28;20410;-77
2022/08/31 07:47:27;;;;;;;6.82;2.70;;;;;;;17.44;60.80;102075.34;5050529;28;20111;-81
2022/08/31 07:49:54;;;;;;;4.32;1.88;;;;;;;17.68;60.05;102075.16;5049254;28;20036;-77
2022/08/31 07:52:22;;;;;;;4.95;1.83;;;;;;;17.89;59.78;102077.78;5048920;28;20048;-77
2022/08/31 07:54:54;;;;;;;3.88;1.80;;;;;;;17.85;59.27;102077.22;5050630;28;20067;-77
2022/08/31 07:57:24;;;;;;;8.82;2.28;;;;;;;17.94;59.83;102072.06;5049946;28;20477;-77
2022/08/31 07:59:53;;;;;;;8.88;1.90;;;;;;;18.17;59.25;102081.59;5054938;28;20016;-77
2022/08/31 08:02:20;;;;;;;4.32;2.10;;;;;;;18.37;58.40;102082.53;5060878;28;20074;-77
2022/08/31 08:04:49;;;;;;;2.45;1.75;;;;;;;18.54;58.17;102083.72;5063193;28;20016;-77
2022/08/31 08:07:16;;;;;;;4.40;1.90;;;;;;;18.46;57.72;102084.41;5062759;28;20032;-75
2022/08/31 08:09:41;;;;;;;5.05;2.05;;;;;;;18.61;58.16;102080.38;5057636;28;20031;-78
2022/08/31 08:12:07;;;;;;;4.88;2.25;;;;;;;18.76;57.82;102078.19;5044558;28;20025;-77
2022/08/31 08:14:34;;;;;;;4.90;2.15;;;;;;;18.73;57.40;102083.81;5042070;28;20475;-78
2022/08/31 08:17:01;;;;;;;3.80;2.00;;;;;;;18.72;57.77;102088.28;5044384;28;20734;-78
2022/08/31 08:19:27;;;;;;;5.53;2.03;;;;;;;18.70;57.73;102084.94;5053333;28;20035;-78
2022/08/31 08:21:52;;;;;;;3.65;2.33;;;;;;;18.83;57.61;102091.84;5058429;28;20021;-78
2022/08/31 08:24:18;;;;;;;3.22;2.00;;;;;;;18.87;57.06;102091.44;5060091;28;20023;-77
2022/08/31 08:26:46;;;;;;;6.28;1.90;;;;;;;18.71;57.71;102099.94;5056816;28;20019;-84
2022/08/31 08:29:11;;;;;;;2.70;1.90;;;;;;;18.59;57.96;102101.00;5061749;28;20409;-82
2022/08/31 08:31:37;;;;;;;3.08;2.03;;;;;;;18.56;58.60;102111.09;5061135;28;20029;-83
2022/08/31 08:34:03;;;;;;;4.97;2.22;;;;;;;18.51;59.29;102108.84;5047842;28;20021;-82
2022/08/31 08:36:34;;;;;;;4.82;2.00;;;;;;;18.47;58.83;102115.41;5049821;28;20025;-83
2022/08/31 08:39:01;;;;;;;4.75;2.38;;;;;;;18.54;59.24;102110.38;5049438;28;20039;-83
2022/08/31 08:41:30;;;;;;;5.53;2.40;;;;;;;18.46;59.42;102111.06;5048732;28;20029;-83
2022/08/31 08:43:59;;;;;;;5.28;2.40;;;;;;;18.48;59.98;102117.09;5049171;28;20013;-83
2022/08/31 08:46:38;;;;;;;6.28;2.60;;;;;;;18.51;60.42;102113.31;5046734;28;20053;-83
2022/08/31 08:49:27;;;;;;;3.28;2.30;;;;;;;18.46;60.19;102113.72;5048188;28;20116;-83
2022/08/31 08:52:10;;;;;;;4.82;2.60;;;;;;;18.46;60.73;102113.72;5043908;28;20044;-82
2022/08/31 08:54:40;;;;;;;8.07;2.78;;;;;;;18.43;60.51;102111.34;5048043;28;20021;-83
2022/08/31 08:57:19;;;;;;;4.55;2.30;;;;;;;18.45;60.05;102112.03;5050093;28;20040;-85
2022/08/31 08:59:47;;;;;;;6.30;2.92;;;;;;;18.60;60.02;102105.34;5050519;28;20031;-85
2022/08/31 09:02:56;;;;;;;4.15;2.65;;;;;;;19.03;59.68;102107.75;5048089;28;20033;-85
2022/08/31 09:05:54;;;;;;;9.23;3.17;;;;;;;19.35;58.52;102102.19;4992070;28;20057;-85
2022/08/31 09:08:47;;;;;;;3.83;2.65;;;;;;;19.58;58.23;102092.06;5049765;28;20099;-86
2022/08/31 09:11:45;;;;;;;6.95;2.47;;;;;;;19.87;57.32;102091.22;5049968;28;20037;-85
2022/08/31 09:14:28;;;;;;;7.88;2.55;;;;;;;20.15;56.94;102094.81;5049684;28;20021;-84
2022/08/31 09:17:16;;;;;;;7.78;2.50;;;;;;;20.29;55.79;102091.66;5028654;28;20420;-85
2022/08/31 09:20:03;;;;;;;7.63;2.78;;;;;;;20.27;54.81;102088.28;5034654;28;20120;-85
2022/08/31 09:22:49;;;;;;;5.57;3.05;;;;;;;20.39;55.79;102091.59;5048867;28;20025;-86
2022/08/31 09:25:31;;;;;;;5.53;2.90;;;;;;;20.56;54.84;102093.56;5048999;28;20480;-84
2022/08/31 09:28:07;;;;;;;6.03;3.10;;;;;;;20.59;54.06;102088.75;5048799;28;20032;-81
2022/08/31 09:30:44;;;;;;;10.57;2.90;;;;;;;20.65;55.20;102088.16;5042026;28;20479;-84
2022/08/31 09:33:17;;;;;;;6.18;3.15;;;;;;;20.63;55.06;102090.13;5028528;28;20021;-84
2022/08/31 09:35:43;;;;;;;6.25;3.50;;;;;;;20.52;54.51;102082.31;5028395;28;20036;-83
2022/08/31 09:38:15;;;;;;;8.40;3.30;;;;;;;20.52;55.55;102084.97;5027849;28;20025;-87
2022/08/31 09:40:48;;;;;;;7.10;3.70;;;;;;;20.83;55.06;102082.00;5039084;28;20040;-86
2022/08/31 09:43:22;;;;;;;8.45;3.40;;;;;;;20.95;55.02;102084.31;5051312;28;20024;-85
2022/08/31 09:46:01;;;;;;;5.65;3.53;;;;;;;21.02;54.38;102089.91;5053579;28;20059;-85
2022/08/31 09:48:51;;;;;;;7.88;4.15;;;;;;;21.10;54.74;102081.94;5047743;28;20032;-86
2022/08/31 09:51:28;;;;;;;6.75;3.80;;;;;;;21.22;54.70;102093.28;5026366;28;20075;-85
2022/08/31 09:57:01;;;;;;;6.75;3.80;;;;;;;21.26;53.34;102086.66;5027724;28;20040;-82
2022/08/31 09:59:36;;;;;;;12.32;3.95;;;;;;;21.20;54.69;102077.34;5036528;28;20021;-84
2022/08/31 10:02:07;;;;;;;7.32;3.78;;;;;;;21.11;54.32;102069.41;5047971;28;20115;-83
2022/08/31 10:04:36;;;;;;;7.53;4.10;;;;;;;21.10;54.02;102076.59;5045982;28;20088;-85
2022/08/31 10:07:29;;;;;;;7.57;4.28;;;;;;;21.09;55.17;102072.25;5047497;28;20501;-84
2022/08/31 10:10:00;;;;;;;5.35;4.20;;;;;;;21.07;54.42;102074.22;5049307;28;20024;-85
2022/08/31 10:12:49;;;;;;;9.27;3.90;;;;;;;21.23;54.66;102069.09;5034402;28;20382;-84
2022/08/31 10:15:35;;;;;;;6.90;4.03;;;;;;;21.18;54.29;102076.66;5036077;28;20057;-84
2022/08/31 10:18:19;;;;;;;6.22;4.03;;;;;;;21.20;54.70;102077.34;5037233;28;20827;-84
2022/08/31 10:21:03;;;;;;;7.75;4.13;;;;;;;21.42;54.52;102075.25;5033545;28;20033;-85
2022/08/31 10:23:55;;;;;;;6.68;3.90;;;;;;;21.51;53.52;102079.69;5054797;28;20067;-88
2022/08/31 10:26:45;;;;;;;5.90;4.28;;;;;;;21.75;54.07;102074.53;5045836;28;20033;-88
2022/08/31 10:29:31;;;;;;;7.40;4.00;;;;;;;21.84;52.79;102076.25;5048062;28;20025;-86
2022/08/31 10:32:07;;;;;;;10.75;4.22;;;;;;;21.84;53.10;102070.06;5047070;28;20477;-87
2022/08/31 10:37:48;;;;;;;11.18;4.30;;;;;;;21.52;53.33;102076.00;5032194;28;20107;-87
2022/08/31 10:40:27;;;;;;;6.22;4.45;;;;;;;21.49;53.86;102070.97;5034324;28;20474;-87
2022/08/31 10:43:08;;;;;;;8.93;4.22;;;;;;;21.66;53.54;102062.06;5079051;28;20028;-86
2022/08/31 10:45:38;;;;;;;7.43;4.40;;;;;;;22.05;53.87;102067.91;5047706;28;20099;-87
2022/08/31 10:48:05;;;;;;;10.40;4.50;;;;;;;21.99;52.49;102064.94;5045648;28;20028;-87
2022/08/31 10:50:56;;;;;;;8.18;4.45;;;;;;;21.90;52.97;102070.25;5046145;28;20025;-87
2022/08/31 10:53:35;;;;;;;9.38;4.63;;;;;;;22.03;52.87;102063.66;5033774;28;20041;-85
2022/08/31 10:56:15;;;;;;;10.88;4.95;;;;;;;22.17;52.65;102060.41;5045954;28;20426;-85
2022/08/31 10:59:02;;;;;;;8.57;4.72;;;;;;;22.28;52.52;102057.44;5037952;28;20034;-84
2022/08/31 11:01:47;;;;;;;7.25;4.47;;;;;;;22.33;52.65;102057.81;5059734;28;20028;-85
2022/08/31 11:04:34;;;;;;;6.38;4.10;;;;;;;22.44;53.04;102051.34;5053856;28;20052;-83
2022/08/31 11:07:25;;;;;;;7.75;4.47;;;;;;;22.57;51.93;102056.22;5056136;28;20035;-85
2022/08/31 11:10:46;;;;;;;8.70;4.15;;;;;;;22.54;52.10;102056.56;5068083;28;20054;-85
2022/08/31 11:13:48;;;;;;;9.30;4.47;;;;;;;22.71;52.26;102047.53;5015030;28;20364;-85
2022/08/31 11:16:35;;;;;;;10.55;4.40;;;;;;;22.93;51.62;102049.66;5042823;28;20402;-85
2022/08/31 11:19:27;;;;;;;19.65;5.20;;;;;;;23.07;50.85;102054.38;5060061;28;20040;-84
2022/08/31 11:22:01;;;;;;;7.82;4.43;;;;;;;23.07;50.58;102049.00;5052506;28;20013;-86
2022/08/31 11:25:17;;;;;;;5.38;4.68;;;;;;;23.21;50.43;102047.50;5057248;28;20074;-85
2022/08/31 11:28:04;;;;;;;18.50;4.55;;;;;;;23.31;49.97;102050.88;5017880;28;20028;-85
2022/08/31 11:30:33;;;;;;;9.52;4.50;;;;;;;23.20;49.21;102053.03;5052411;28;20518;-85
2022/08/31 11:33:06;;;;;;;7.80;4.18;;;;;;;23.23;49.86;102040.13;5054794;28;20494;-88
2022/08/31 11:36:04;;;;;;;6.22;4.70;;;;;;;23.28;50.22;102040.47;5073161;28;20035;-85
2022/08/31 11:39:13;;;;;;;5.78;4.18;;;;;;;23.40;50.36;102032.91;5074626;28;20021;-85
2022/08/31 11:41:46;;;;;;;16.88;4.60;;;;;;;23.48;49.31;102046.34;5069592;28;20036;-84
2022/08/31 11:44:35;;;;;;;10.95;4.20;;;;;;;23.43;50.41;102037.94;5063293;28;20030;-83
2022/08/31 11:47:06;;;;;;;6.45;3.88;;;;;;;23.47;49.91;102038.44;5049637;28;20037;-82
2022/08/31 11:49:37;;;;;;;10.20;3.97;;;;;;;23.32;50.12;102038.28;5046423;28;20045;-81
2022/08/31 11:52:09;;;;;;;10.25;4.28;;;;;;;23.20;50.04;102026.19;5035486;28;20029;-82
2022/08/31 11:54:40;;;;;;;7.20;3.97;;;;;;;23.25;49.56;102023.84;5041493;28;20155;-80
2022/08/31 11:57:09;;;;;;;9.88;4.22;;;;;;;23.42;49.76;102012.09;5033826;28;20345;-83